createdAt,value
2023-07-18T00:02:22.756Z,18.20
2023-07-18T00:04:51.050Z,18.20
2023-07-18T00:07:18.006Z,18.20
2023-07-18T00:09:45.040Z,18.20
2023-07-18T00:12:12.207Z,18.20
2023-07-18T00:14:39.138Z,18.20
2023-07-18T00:17:06.444Z,18.10
2023-07-18T00:19:34.708Z,18.10
2023-07-18T00:22:03.125Z,18.00
2023-07-18T00:24:30.264Z,17.90
2023-07-18T00:26:58.305Z,17.80
2023-07-18T00:29:25.403Z,17.70
2023-07-18T00:31:52.391Z,17.60
2023-07-18T00:34:19.354Z,17.50
2023-07-18T00:36:46.656Z,17.50
2023-07-18T00:39:15.017Z,17.40
2023-07-18T00:41:42.010Z,17.50
2023-07-18T00:44:09.083Z,17.50
2023-07-18T00:46:37.445Z,17.60
2023-07-18T00:49:04.734Z,17.60
2023-07-18T00:51:32.220Z,17.50
2023-07-18T00:54:01.285Z,17.50
2023-07-18T00:56:30.288Z,17.50
2023-07-18T00:58:57.515Z,17.40
2023-07-18T01:01:25.534Z,17.40
2023-07-18T01:03:54.211Z,17.30
2023-07-18T01:06:22.915Z,17.20
2023-07-18T01:08:49.874Z,17.20
2023-07-18T01:11:17.553Z,17.10
2023-07-18T01:13:46.016Z,17.00
2023-07-18T01:16:14.701Z,17.00
2023-07-18T01:18:42.016Z,17.00
2023-07-18T01:21:17.615Z,17.00
2023-07-18T01:23:46.619Z,17.00
2023-07-18T01:26:14.163Z,16.90
2023-07-18T01:28:41.845Z,16.90
2023-07-18T01:31:09.014Z,16.90
2023-07-18T01:33:36.229Z,16.80
2023-07-18T01:36:03.674Z,16.80
2023-07-18T01:38:31.994Z,16.80
2023-07-18T01:41:00.225Z,16.70
2023-07-18T01:43:27.287Z,16.60
2023-07-18T01:45:59.437Z,16.60
2023-07-18T01:48:29.007Z,16.50
2023-07-18T01:50:55.963Z,16.40
2023-07-18T01:53:27.299Z,16.30
2023-07-18T01:55:58.975Z,16.20
2023-07-18T01:58:26.110Z,16.20
2023-07-18T02:00:53.141Z,16.20
2023-07-18T02:03:20.160Z,16.20
2023-07-18T02:05:51.517Z,16.20
2023-07-18T02:08:18.544Z,16.20
2023-07-18T02:10:45.522Z,16.20
2023-07-18T02:13:13.847Z,16.20
2023-07-18T02:15:40.911Z,16.10
2023-07-18T02:18:07.869Z,16.10
2023-07-18T02:20:35.025Z,16.00
2023-07-18T02:23:02.710Z,15.90
2023-07-18T02:25:29.897Z,15.90
2023-07-18T02:27:58.145Z,15.80
2023-07-18T02:30:29.993Z,15.70
2023-07-18T02:32:58.487Z,15.70
2023-07-18T02:35:25.614Z,15.60
2023-07-18T02:37:52.529Z,15.60
2023-07-18T02:40:19.745Z,15.60
2023-07-18T02:42:46.736Z,15.60
2023-07-18T02:45:14.283Z,15.50
2023-07-18T02:47:42.829Z,15.50
2023-07-18T02:50:10.296Z,15.50
2023-07-18T02:52:37.583Z,15.40
2023-07-18T02:55:05.477Z,15.40
2023-07-18T02:57:32.886Z,15.40
2023-07-18T03:00:00.699Z,15.30
2023-07-18T03:02:30.101Z,15.30
2023-07-18T03:04:58.821Z,15.30
2023-07-18T03:07:25.811Z,15.30
2023-07-18T03:09:52.782Z,15.20
2023-07-18T03:12:22.375Z,15.20
2023-07-18T03:14:50.110Z,15.30
2023-07-18T03:17:18.258Z,15.30
2023-07-18T03:19:45.216Z,15.20
2023-07-18T03:22:14.449Z,15.30
2023-07-18T03:24:41.836Z,15.20
2023-07-18T03:27:08.975Z,15.30
2023-07-18T03:29:35.932Z,15.30
2023-07-18T03:32:03.023Z,15.30
2023-07-18T03:34:30.181Z,15.30
2023-07-18T03:36:57.282Z,15.30
2023-07-18T03:39:25.598Z,15.40
2023-07-18T03:41:52.659Z,15.40
2023-07-18T03:44:19.696Z,15.30
2023-07-18T03:46:46.891Z,15.30
2023-07-18T03:49:14.060Z,15.30
2023-07-18T03:51:41.136Z,15.40
2023-07-18T03:54:08.116Z,15.30
2023-07-18T03:56:37.546Z,15.30
2023-07-18T03:59:04.673Z,15.30
2023-07-18T04:01:31.760Z,15.30
2023-07-18T04:03:58.865Z,15.40
2023-07-18T04:06:26.022Z,15.40
2023-07-18T04:08:53.023Z,15.40
2023-07-18T04:11:20.156Z,15.20
2023-07-18T04:13:48.800Z,15.20
2023-07-18T04:16:15.786Z,15.20
2023-07-18T04:18:42.821Z,15.20
2023-07-18T04:21:09.832Z,15.20
2023-07-18T04:23:36.789Z,15.20
2023-07-18T04:26:04.533Z,15.30
2023-07-18T04:28:35.799Z,15.30
2023-07-18T04:31:04.603Z,15.40
2023-07-18T04:33:36.979Z,15.50
2023-07-18T04:36:08.145Z,15.50
2023-07-18T04:38:35.543Z,15.50
2023-07-18T04:41:04.147Z,15.50
2023-07-18T04:43:31.643Z,15.50
2023-07-18T04:45:58.695Z,15.50
2023-07-18T04:48:27.084Z,15.50
2023-07-18T04:50:59.421Z,15.60
2023-07-18T04:53:27.798Z,15.60
2023-07-18T04:55:56.696Z,15.70
2023-07-18T04:58:26.138Z,15.80
2023-07-18T05:00:55.927Z,15.80
2023-07-18T05:03:23.284Z,15.90
2023-07-18T05:05:51.650Z,15.90
2023-07-18T05:08:19.154Z,16.00
2023-07-18T05:10:46.349Z,16.00
2023-07-18T05:13:13.426Z,16.00
2023-07-18T05:15:43.191Z,16.10
2023-07-18T05:18:10.712Z,16.20
2023-07-18T05:20:37.849Z,16.30
2023-07-18T05:23:06.308Z,16.30
2023-07-18T05:25:34.483Z,16.40
2023-07-18T05:28:01.637Z,16.40
2023-07-18T05:30:28.692Z,16.50
2023-07-18T05:32:55.896Z,16.50
2023-07-18T05:35:23.022Z,16.60
2023-07-18T05:37:49.960Z,16.60
2023-07-18T05:40:21.753Z,16.70
2023-07-18T05:42:49.679Z,16.70
2023-07-18T05:45:16.821Z,16.80
2023-07-18T05:47:44.043Z,16.90
2023-07-18T05:50:11.668Z,16.90
2023-07-18T05:52:39.584Z,16.90
2023-07-18T05:55:08.676Z,17.00
2023-07-18T05:57:37.448Z,17.00
2023-07-18T06:00:07.356Z,17.10
2023-07-18T06:02:39.420Z,17.20
2023-07-18T06:05:09.332Z,17.20
2023-07-18T06:07:36.419Z,17.20
2023-07-18T06:10:04.639Z,17.20
2023-07-18T06:12:31.753Z,17.30
2023-07-18T06:15:00.185Z,17.40
2023-07-18T06:17:27.200Z,17.40
2023-07-18T06:19:54.192Z,17.50
2023-07-18T06:22:22.171Z,17.60
2023-07-18T06:24:49.197Z,17.70
2023-07-18T06:27:16.142Z,17.80
2023-07-18T06:29:45.313Z,17.80
2023-07-18T06:32:13.744Z,17.90
2023-07-18T06:34:41.890Z,18.00
2023-07-18T06:37:11.541Z,18.00
2023-07-18T06:39:38.855Z,18.10
2023-07-18T06:42:07.546Z,18.10
2023-07-18T06:44:34.677Z,18.20
2023-07-18T06:47:02.253Z,18.20
2023-07-18T06:49:30.725Z,18.30
2023-07-18T06:51:57.673Z,18.40
2023-07-18T06:54:24.732Z,18.50
2023-07-18T06:56:51.765Z,18.60
2023-07-18T06:59:18.724Z,18.70
2023-07-18T07:01:45.700Z,18.70
2023-07-18T07:04:12.782Z,18.80
2023-07-18T07:06:42.749Z,18.90
2023-07-18T07:09:11.137Z,19.00
2023-07-18T07:11:38.121Z,19.20
2023-07-18T07:14:06.204Z,19.20
2023-07-18T07:16:34.484Z,19.30
2023-07-18T07:19:01.594Z,19.40
2023-07-18T07:21:28.537Z,19.40
2023-07-18T07:23:58.119Z,19.50
2023-07-18T07:26:25.596Z,19.50
2023-07-18T07:28:52.650Z,19.70
2023-07-18T07:31:19.967Z,19.70
2023-07-18T07:33:47.292Z,19.80
2023-07-18T07:36:14.678Z,19.90
2023-07-18T07:38:41.703Z,20.10
2023-07-18T07:41:10.032Z,20.10
2023-07-18T07:43:37.017Z,20.20
2023-07-18T07:46:04.344Z,20.20
2023-07-18T07:48:31.333Z,20.30
2023-07-18T07:50:59.566Z,20.40
2023-07-18T07:53:26.726Z,20.30
2023-07-18T07:55:53.775Z,20.40
2023-07-18T07:58:22.058Z,20.50
2023-07-18T08:00:49.164Z,20.60
2023-07-18T08:03:16.086Z,20.70
2023-07-18T08:05:43.105Z,20.80
2023-07-18T08:08:11.275Z,20.90
2023-07-18T08:10:38.359Z,21.00
2023-07-18T08:13:05.357Z,21.10
2023-07-18T08:15:33.668Z,21.10
2023-07-18T08:18:01.365Z,21.30
2023-07-18T08:20:29.024Z,21.40
2023-07-18T08:22:56.083Z,21.50
2023-07-18T08:25:23.158Z,21.60
2023-07-18T08:27:50.410Z,21.70
2023-07-18T08:30:17.519Z,21.80
2023-07-18T08:32:45.901Z,22.00
2023-07-18T08:35:13.082Z,22.10
2023-07-18T08:37:42.695Z,22.20
2023-07-18T08:40:13.867Z,22.40
2023-07-18T08:42:41.227Z,22.50
2023-07-18T08:45:11.791Z,22.70
2023-07-18T08:47:39.567Z,22.90
2023-07-18T08:50:11.853Z,23.10
2023-07-18T08:52:39.373Z,23.20
2023-07-18T08:55:07.315Z,23.30
2023-07-18T08:57:34.729Z,23.50
2023-07-18T09:00:05.524Z,23.60
2023-07-18T09:02:32.615Z,23.70
2023-07-18T09:04:59.642Z,23.90
2023-07-18T09:07:28.789Z,24.00
2023-07-18T09:09:56.541Z,24.10
2023-07-18T09:12:23.526Z,24.30
2023-07-18T09:14:57.038Z,24.40
2023-07-18T09:17:24.245Z,24.50
2023-07-18T09:19:51.342Z,24.60
2023-07-18T09:22:18.464Z,24.70
2023-07-18T09:24:49.197Z,24.90
2023-07-18T09:27:18.552Z,24.90
2023-07-18T09:29:48.743Z,25.00
2023-07-18T09:32:17.217Z,25.20
2023-07-18T09:34:52.072Z,25.40
2023-07-18T09:37:19.051Z,25.60
2023-07-18T09:39:47.864Z,25.80
2023-07-18T09:42:17.488Z,26.00
2023-07-18T09:47:18.873Z,26.40
2023-07-18T09:49:46.329Z,26.50
2023-07-18T09:52:15.889Z,26.70
2023-07-18T09:54:44.741Z,26.80
2023-07-18T09:57:17.224Z,26.90
2023-07-18T09:59:49.275Z,27.30
2023-07-18T10:02:16.354Z,27.60
2023-07-18T10:04:45.120Z,27.60
2023-07-18T10:07:12.413Z,27.50
2023-07-18T10:09:40.267Z,27.50
2023-07-18T10:12:08.776Z,27.50
2023-07-18T10:14:51.853Z,27.40
2023-07-18T10:17:36.691Z,27.20
2023-07-18T10:20:11.432Z,27.10
2023-07-18T10:22:47.469Z,27.00
2023-07-18T10:25:15.180Z,26.70
2023-07-18T10:27:44.735Z,26.50
2023-07-18T10:30:16.900Z,26.30
2023-07-18T10:32:53.926Z,26.10
2023-07-18T10:35:23.142Z,26.00
2023-07-18T10:37:53.311Z,26.00
2023-07-18T10:40:38.118Z,26.10
2023-07-18T10:43:06.508Z,26.00
2023-07-18T10:45:38.293Z,26.10
2023-07-18T10:48:13.206Z,26.30
2023-07-18T10:50:40.450Z,26.60
2023-07-18T10:53:11.862Z,26.80
2023-07-18T10:55:38.959Z,27.30
2023-07-18T10:58:11.506Z,27.70
2023-07-18T11:00:41.757Z,27.70
2023-07-18T11:03:18.497Z,28.10
2023-07-18T11:05:47.750Z,28.40
2023-07-18T11:08:23.699Z,28.50
2023-07-18T11:10:54.910Z,28.30
2023-07-18T11:13:26.931Z,28.00
2023-07-18T11:15:57.863Z,27.70
2023-07-18T11:18:24.920Z,27.40
2023-07-18T11:20:53.875Z,27.20
2023-07-18T11:23:21.269Z,27.00
2023-07-18T11:25:48.380Z,26.70
2023-07-18T11:28:16.719Z,26.50
2023-07-18T11:30:44.993Z,26.20
2023-07-18T11:33:14.768Z,26.00
2023-07-18T11:35:46.818Z,25.80
2023-07-18T11:38:24.262Z,25.60
2023-07-18T11:40:52.052Z,25.40
2023-07-18T11:43:19.604Z,25.00
2023-07-18T11:45:47.674Z,24.70
2023-07-18T11:48:20.472Z,24.50
2023-07-18T11:50:49.270Z,24.40
2023-07-18T11:53:26.526Z,24.30
2023-07-18T11:55:54.616Z,24.30
2023-07-18T11:58:21.605Z,24.20
2023-07-18T12:00:48.683Z,24.30
2023-07-18T12:03:17.053Z,24.30
2023-07-18T12:05:44.518Z,24.30
2023-07-18T12:08:11.533Z,24.50
2023-07-18T12:10:38.792Z,24.60
2023-07-18T12:13:05.780Z,24.70
2023-07-18T12:15:33.132Z,24.70
2023-07-18T12:18:01.205Z,24.80
2023-07-18T12:20:29.618Z,24.90
2023-07-18T12:22:56.662Z,25.10
2023-07-18T12:25:23.886Z,25.30
2023-07-18T12:27:50.895Z,25.60
2023-07-18T12:30:17.999Z,25.70
2023-07-18T12:32:45.506Z,25.90
2023-07-18T12:35:12.640Z,26.00
2023-07-18T12:37:41.082Z,26.20
2023-07-18T12:40:09.022Z,26.40
2023-07-18T12:42:36.062Z,26.50
2023-07-18T12:45:03.213Z,26.60
2023-07-18T12:47:30.278Z,26.90
2023-07-18T12:49:57.551Z,27.10
2023-07-18T12:52:24.703Z,27.10
2023-07-18T12:54:53.029Z,27.20
2023-07-18T12:57:20.009Z,27.30
2023-07-18T12:59:47.459Z,27.30
2023-07-18T13:02:14.677Z,27.40
2023-07-18T13:04:41.988Z,27.30
2023-07-18T13:07:09.055Z,27.30
2023-07-18T13:09:36.090Z,27.40
2023-07-18T13:12:04.869Z,27.40
2023-07-18T13:14:31.976Z,27.40
2023-07-18T13:16:59.019Z,27.40
2023-07-18T13:19:26.252Z,27.40
2023-07-18T13:21:53.221Z,27.30
2023-07-18T13:24:20.458Z,27.20
2023-07-18T13:26:47.618Z,27.10
2023-07-18T13:29:15.926Z,27.10
2023-07-18T13:31:43.090Z,27.10
2023-07-18T13:34:12.649Z,27.20
2023-07-18T13:36:41.519Z,27.50
2023-07-18T13:39:08.477Z,27.90
2023-07-18T13:41:35.570Z,28.40
2023-07-18T13:44:04.374Z,29.00
2023-07-18T13:46:33.112Z,29.30
2023-07-18T13:49:00.384Z,29.40
2023-07-18T13:51:27.467Z,29.50
2023-07-18T13:53:54.517Z,29.60
2023-07-18T13:56:21.979Z,29.50
2023-07-18T13:58:49.304Z,29.50
2023-07-18T14:01:16.293Z,29.30
2023-07-18T14:03:44.736Z,29.10
2023-07-18T14:06:11.751Z,28.80
2023-07-18T14:08:39.381Z,28.40
2023-07-18T14:11:06.610Z,28.20
2023-07-18T14:13:33.807Z,27.90
2023-07-18T14:16:01.019Z,27.70
2023-07-18T14:18:28.053Z,27.50
2023-07-18T14:20:56.588Z,27.40
2023-07-18T14:23:23.601Z,27.30
2023-07-18T14:25:50.558Z,27.30
2023-07-18T14:28:18.883Z,27.20
2023-07-18T14:30:45.991Z,27.20
2023-07-18T14:33:15.072Z,27.20
2023-07-18T14:35:42.420Z,27.20
2023-07-18T14:38:10.878Z,27.00
2023-07-18T14:40:38.142Z,26.90
2023-07-18T14:43:08.632Z,26.90
2023-07-18T14:45:36.617Z,26.80
2023-07-18T14:48:04.122Z,26.90
2023-07-18T14:50:31.376Z,27.10
2023-07-18T14:52:58.836Z,27.20
2023-07-18T14:55:27.289Z,27.40
2023-07-18T14:57:54.370Z,27.60
2023-07-18T15:00:21.852Z,27.80
2023-07-18T15:02:49.513Z,28.00
2023-07-18T15:05:16.598Z,28.10
2023-07-18T15:07:43.662Z,28.20
2023-07-18T15:10:11.949Z,28.40
2023-07-18T15:12:41.757Z,28.60
2023-07-18T15:15:10.326Z,28.80
2023-07-18T15:17:42.053Z,28.80
2023-07-18T15:20:10.684Z,28.90
2023-07-18T15:22:37.973Z,28.90
2023-07-18T15:25:06.413Z,28.80
2023-07-18T15:27:33.842Z,28.60
2023-07-18T15:30:02.611Z,28.60
2023-07-18T15:32:30.211Z,28.40
2023-07-18T15:34:57.323Z,28.50
2023-07-18T15:37:25.680Z,28.60
2023-07-18T15:39:52.648Z,28.80
2023-07-18T15:42:20.197Z,29.00
2023-07-18T15:44:48.120Z,28.90
2023-07-18T15:47:16.556Z,28.80
2023-07-18T15:49:43.501Z,28.60
2023-07-18T15:52:10.504Z,28.50
2023-07-18T15:54:37.751Z,28.50
2023-07-18T15:57:06.470Z,28.30
2023-07-18T15:59:33.565Z,28.10
2023-07-18T16:02:00.583Z,28.00
2023-07-18T16:04:28.928Z,27.90
2023-07-18T16:06:55.946Z,27.70
2023-07-18T16:09:29.546Z,27.80
2023-07-18T16:11:57.253Z,27.80
2023-07-18T16:14:25.222Z,27.50
2023-07-18T16:16:52.314Z,27.40
2023-07-18T16:19:19.525Z,27.30
2023-07-18T16:21:47.831Z,27.00
2023-07-18T16:24:15.116Z,27.00
2023-07-18T16:26:42.205Z,27.00
2023-07-18T16:29:09.180Z,26.90
2023-07-18T16:31:37.095Z,26.90
2023-07-18T16:34:04.111Z,27.00
2023-07-18T16:36:31.146Z,27.00
2023-07-18T16:38:59.374Z,27.00
2023-07-18T16:41:26.332Z,26.90
2023-07-18T16:46:21.211Z,26.60
2023-07-18T16:48:48.997Z,26.40
2023-07-18T16:51:16.098Z,26.40
2023-07-18T16:53:43.132Z,26.40
2023-07-18T16:56:12.962Z,26.40
2023-07-18T16:58:41.958Z,26.40
2023-07-18T17:01:09.032Z,26.40
2023-07-18T17:03:36.023Z,26.40
2023-07-18T17:06:03.025Z,26.40
2023-07-18T17:08:31.306Z,26.40
2023-07-18T17:10:58.416Z,26.30
2023-07-18T17:13:26.840Z,26.30
2023-07-18T17:15:53.939Z,26.20
2023-07-18T17:18:21.196Z,26.20
2023-07-18T17:20:48.251Z,26.20
2023-07-18T17:23:15.323Z,26.20
2023-07-18T17:25:42.371Z,26.10
2023-07-18T17:28:09.384Z,26.00
2023-07-18T17:30:37.807Z,25.90
2023-07-18T17:33:05.874Z,25.80
2023-07-18T17:35:33.313Z,25.80
2023-07-18T17:38:00.244Z,25.70
2023-07-18T17:40:27.221Z,25.70
2023-07-18T17:42:54.225Z,25.60
2023-07-18T17:45:23.176Z,25.60
2023-07-18T17:47:51.540Z,25.50
2023-07-18T17:50:18.576Z,25.50
2023-07-18T17:52:45.677Z,25.40
2023-07-18T17:55:12.816Z,25.40
2023-07-18T17:57:40.715Z,25.40
2023-07-18T18:00:08.789Z,25.30
2023-07-18T18:02:36.182Z,25.40
2023-07-18T18:05:45.006Z,25.40
2023-07-18T18:08:13.913Z,25.30
2023-07-18T18:10:41.478Z,25.20
2023-07-18T18:13:08.570Z,25.10
2023-07-18T18:15:35.549Z,25.00
2023-07-18T18:18:02.643Z,24.90
2023-07-18T18:20:31.025Z,24.80
2023-07-18T18:22:58.837Z,24.70
2023-07-18T18:25:26.078Z,24.60
2023-07-18T18:27:53.656Z,24.60
2023-07-18T18:30:20.614Z,24.50
2023-07-18T18:32:47.541Z,24.40
2023-07-18T18:35:14.470Z,24.30
2023-07-18T18:37:48.038Z,24.20
2023-07-18T18:40:17.200Z,24.10
2023-07-18T18:42:44.388Z,24.00
2023-07-18T18:45:11.560Z,23.90
2023-07-18T18:47:39.894Z,23.90
2023-07-18T18:50:08.038Z,23.80
2023-07-18T18:52:35.720Z,23.70
2023-07-18T18:55:17.651Z,23.60
2023-07-18T18:57:47.136Z,23.50
2023-07-18T19:00:14.417Z,23.40
2023-07-18T19:02:43.606Z,23.40
2023-07-18T19:05:11.510Z,23.30
2023-07-18T19:07:38.881Z,23.30
2023-07-18T19:10:07.951Z,23.20
2023-07-18T19:12:35.977Z,23.10
2023-07-18T19:15:03.673Z,23.10
2023-07-18T19:17:30.749Z,23.10
2023-07-18T19:19:57.744Z,23.10
2023-07-18T19:22:24.773Z,23.10
2023-07-18T19:24:52.153Z,23.00
2023-07-18T19:27:20.538Z,23.00
2023-07-18T19:29:47.853Z,23.00
2023-07-18T19:32:14.874Z,23.00
2023-07-18T19:34:45.075Z,22.90
2023-07-18T19:37:12.143Z,22.80
2023-07-18T19:39:39.140Z,22.60
2023-07-18T19:42:07.099Z,22.50
2023-07-18T19:44:35.664Z,22.50
2023-07-18T19:47:02.837Z,22.40
2023-07-18T19:49:30.055Z,22.30
2023-07-18T19:51:57.816Z,22.20
2023-07-18T19:54:24.988Z,22.10
2023-07-18T19:56:52.156Z,22.10
2023-07-18T19:59:19.404Z,22.00
2023-07-18T20:01:47.885Z,22.00
2023-07-18T20:04:15.084Z,22.00
2023-07-18T20:06:42.311Z,21.80
2023-07-18T20:09:09.332Z,21.80
2023-07-18T20:11:36.295Z,21.70
2023-07-18T20:14:03.418Z,21.60
2023-07-18T20:16:31.364Z,21.60
2023-07-18T20:19:02.493Z,21.60
2023-07-18T20:21:30.258Z,21.50
2023-07-18T20:23:58.202Z,21.40
2023-07-18T20:26:25.597Z,21.40
2023-07-18T20:28:52.593Z,21.20
2023-07-18T20:31:20.463Z,21.10
2023-07-18T20:33:48.341Z,21.10
2023-07-18T20:36:17.132Z,21.10
2023-07-18T20:38:44.219Z,21.10
2023-07-18T20:41:11.217Z,21.00
2023-07-18T20:43:38.275Z,20.90
2023-07-18T20:46:05.610Z,20.80
2023-07-18T20:48:35.425Z,20.80
2023-07-18T20:51:02.419Z,20.80
2023-07-18T20:53:31.066Z,20.70
2023-07-18T20:55:58.259Z,20.60
2023-07-18T20:58:25.318Z,20.70
2023-07-18T21:00:52.337Z,20.70
2023-07-18T21:03:19.363Z,20.70
2023-07-18T21:05:49.872Z,20.70
2023-07-18T21:08:18.540Z,20.70
2023-07-18T21:10:47.040Z,20.70
2023-07-18T21:13:14.169Z,20.70
2023-07-18T21:15:41.875Z,20.70
2023-07-18T21:18:08.900Z,20.70
2023-07-18T21:20:36.027Z,20.60
2023-07-18T21:23:04.931Z,20.60
2023-07-18T21:25:32.326Z,20.60
2023-07-18T21:28:00.645Z,20.50
2023-07-18T21:30:27.667Z,20.50
2023-07-18T21:32:54.961Z,20.50
2023-07-18T21:35:25.137Z,20.40
2023-07-18T21:37:52.234Z,20.50
2023-07-18T21:40:19.934Z,20.40
2023-07-18T21:42:48.024Z,20.40
2023-07-18T21:45:16.688Z,20.40
2023-07-18T21:47:44.133Z,20.40
2023-07-18T21:50:11.402Z,20.30
2023-07-18T21:52:38.443Z,20.40
2023-07-18T21:55:07.008Z,20.30
2023-07-18T21:57:34.046Z,20.30
2023-07-18T22:00:01.140Z,20.30
2023-07-18T22:02:36.212Z,20.30
2023-07-18T22:05:04.262Z,20.30
2023-07-18T22:07:31.596Z,20.30
2023-07-18T22:09:59.375Z,20.30
2023-07-18T22:12:26.424Z,20.30
2023-07-18T22:14:53.352Z,20.30
2023-07-18T22:17:20.380Z,20.30
2023-07-18T22:19:48.728Z,20.20
2023-07-18T22:22:15.952Z,20.10
2023-07-18T22:24:42.954Z,20.00
2023-07-18T22:27:10.055Z,20.00
2023-07-18T22:29:37.295Z,19.90
2023-07-18T22:32:05.118Z,19.80
2023-07-18T22:34:32.272Z,19.70
2023-07-18T22:37:00.674Z,19.70
2023-07-18T22:39:35.542Z,19.60
2023-07-18T22:42:15.225Z,19.60
2023-07-18T22:45:31.705Z,19.60
2023-07-18T22:47:58.694Z,19.60
2023-07-18T22:50:25.696Z,19.60
2023-07-18T22:52:53.959Z,19.60
2023-07-18T22:55:20.944Z,19.60
2023-07-18T22:57:47.909Z,19.60
2023-07-18T23:00:15.366Z,19.60
2023-07-18T23:02:43.566Z,19.60
2023-07-18T23:05:10.559Z,19.60
2023-07-18T23:07:39.379Z,19.60
2023-07-18T23:10:08.767Z,19.60
2023-07-18T23:12:36.194Z,19.50
2023-07-18T23:15:03.189Z,19.50
2023-07-18T23:17:30.210Z,19.50
2023-07-18T23:19:57.132Z,19.50
2023-07-18T23:22:24.004Z,19.60
2023-07-18T23:24:50.931Z,19.60
2023-07-18T23:27:19.178Z,19.60
2023-07-18T23:29:46.081Z,19.60
2023-07-18T23:32:13.079Z,19.60
2023-07-18T23:34:40.071Z,19.50
2023-07-18T23:37:07.285Z,19.50
2023-07-18T23:39:34.537Z,19.50
2023-07-18T23:42:01.573Z,19.40
2023-07-18T23:44:29.856Z,19.40
2023-07-18T23:46:56.790Z,19.40
2023-07-18T23:49:23.729Z,19.40
2023-07-18T23:51:50.717Z,19.40
2023-07-18T23:54:17.691Z,19.30
2023-07-18T23:56:44.725Z,19.40
2023-07-18T23:59:11.670Z,19.30
